createdAt,value
2018-03-03T00:00:40.604Z,9.00
2018-03-03T00:03:10.815Z,7.20
2018-03-03T00:05:41.269Z,8.87
2018-03-03T00:08:11.307Z,8.43
2018-03-03T00:10:41.510Z,8.73
2018-03-03T00:13:11.665Z,9.67
2018-03-03T00:15:42.542Z,10.00
2018-03-03T00:18:12.526Z,10.20
2018-03-03T00:20:43.453Z,10.10
2018-03-03T00:23:13.716Z,10.20
2018-03-03T00:25:43.813Z,10.43
2018-03-03T00:28:14.310Z,9.67
2018-03-03T00:30:44.378Z,9.77
2018-03-03T00:33:14.602Z,10.57
2018-03-03T00:35:44.954Z,9.20
2018-03-03T00:38:15.633Z,9.97
2018-03-03T00:40:45.941Z,10.23
2018-03-03T00:43:16.830Z,10.07
2018-03-03T00:45:47.411Z,10.07
2018-03-03T00:48:18.559Z,9.77
2018-03-03T00:50:49.847Z,10.90
2018-03-03T00:53:20.664Z,10.50
2018-03-03T00:55:50.926Z,10.20
2018-03-03T00:58:20.937Z,10.37
2018-03-03T01:00:51.449Z,9.90
2018-03-03T01:03:21.671Z,10.90
2018-03-03T01:05:52.171Z,9.80
2018-03-03T01:08:23.871Z,11.20
2018-03-03T01:10:54.155Z,8.43
2018-03-03T01:13:24.554Z,10.33
2018-03-03T01:15:54.509Z,8.70
2018-03-03T01:18:25.893Z,9.73
2018-03-03T01:20:56.746Z,8.97
2018-03-03T01:23:27.014Z,8.97
2018-03-03T01:25:57.140Z,8.73
2018-03-03T01:28:27.971Z,8.33
2018-03-03T01:30:58.140Z,8.30
2018-03-03T01:33:28.632Z,7.00
2018-03-03T01:35:59.406Z,5.83
2018-03-03T01:38:30.433Z,6.00
2018-03-03T01:41:00.743Z,6.50
2018-03-03T01:43:30.866Z,6.40
2018-03-03T01:46:01.088Z,6.07
2018-03-03T01:48:31.303Z,6.63
2018-03-03T01:51:01.438Z,7.13
2018-03-03T01:53:31.783Z,7.53
2018-03-03T01:56:02.735Z,6.67
2018-03-03T01:58:34.127Z,6.93
2018-03-03T02:01:03.860Z,7.37
2018-03-03T02:03:33.609Z,5.87
2018-03-03T02:06:04.121Z,6.10
2018-03-03T02:08:34.820Z,6.27
2018-03-03T02:11:05.167Z,6.00
2018-03-03T02:13:35.356Z,5.80
2018-03-03T02:16:05.283Z,6.03
2018-03-03T02:18:35.450Z,6.10
2018-03-03T02:21:06.097Z,5.90
2018-03-03T02:23:37.075Z,6.03
2018-03-03T02:26:07.272Z,6.00
2018-03-03T02:28:37.417Z,6.37
2018-03-03T02:31:07.465Z,6.00
2018-03-03T02:33:37.745Z,6.97
2018-03-03T02:36:08.002Z,7.27
2018-03-03T02:38:38.202Z,7.13
2018-03-03T02:41:08.226Z,7.57
2018-03-03T02:43:38.161Z,7.23
2018-03-03T02:46:08.270Z,7.57
2018-03-03T02:48:38.467Z,6.97
2018-03-03T02:51:08.428Z,7.30
2018-03-03T02:53:38.217Z,7.20
2018-03-03T02:56:08.458Z,7.80
2018-03-03T02:58:38.891Z,7.50
2018-03-03T03:01:09.714Z,6.93
2018-03-03T03:03:40.161Z,7.03
2018-03-03T03:06:11.185Z,8.50
2018-03-03T03:08:41.726Z,8.40
2018-03-03T03:11:11.770Z,8.20
2018-03-03T03:13:42.000Z,8.40
2018-03-03T03:16:13.373Z,8.07
2018-03-03T03:18:43.742Z,9.57
2018-03-03T03:21:13.942Z,8.33
2018-03-03T03:23:44.360Z,9.70
2018-03-03T03:26:14.362Z,9.13
2018-03-03T03:28:44.415Z,9.77
2018-03-03T03:31:14.543Z,9.70
2018-03-03T03:33:44.633Z,8.90
2018-03-03T03:36:14.656Z,9.27
2018-03-03T03:38:46.571Z,7.83
2018-03-03T03:41:16.923Z,8.50
2018-03-03T03:43:47.308Z,8.10
2018-03-03T03:46:18.585Z,8.40
2018-03-03T03:48:48.687Z,6.23
2018-03-03T03:51:18.986Z,5.67
2018-03-03T03:53:49.190Z,6.03
2018-03-03T03:56:19.371Z,6.20
2018-03-03T03:58:50.386Z,6.17
2018-03-03T04:01:21.493Z,6.50
2018-03-03T04:03:51.547Z,6.10
2018-03-03T04:06:21.774Z,5.80
2018-03-03T04:08:53.353Z,5.73
2018-03-03T04:11:23.700Z,5.77
2018-03-03T04:13:53.821Z,5.50
2018-03-03T04:16:24.550Z,4.90
2018-03-03T04:18:54.595Z,5.97
2018-03-03T04:21:25.621Z,5.57
2018-03-03T04:23:56.041Z,5.10
2018-03-03T04:26:27.057Z,5.10
2018-03-03T04:28:57.537Z,5.20
2018-03-03T04:31:28.525Z,5.37
2018-03-03T04:33:58.880Z,5.57
2018-03-03T04:36:29.991Z,5.50
2018-03-03T04:39:00.348Z,5.60
2018-03-03T04:41:30.470Z,5.60
2018-03-03T04:44:01.655Z,5.30
2018-03-03T04:46:31.803Z,6.43
2018-03-03T04:49:02.263Z,5.50
2018-03-03T04:51:32.777Z,6.20
2018-03-03T04:54:03.378Z,6.10
2018-03-03T04:56:33.734Z,5.30
2018-03-03T05:02:09.609Z,5.70
2018-03-03T05:04:46.664Z,6.13
2018-03-03T05:07:22.177Z,5.00
2018-03-03T05:09:53.830Z,5.30
2018-03-03T05:12:36.068Z,4.93
2018-03-03T05:15:18.548Z,5.33
2018-03-03T05:17:50.305Z,5.37
2018-03-03T05:20:26.487Z,4.70
2018-03-03T05:23:01.903Z,5.17
2018-03-03T05:25:53.334Z,4.93
2018-03-03T05:28:29.177Z,5.60
2018-03-03T05:31:05.208Z,4.90
2018-03-03T05:33:40.378Z,5.50
2018-03-03T05:39:26.798Z,4.97
2018-03-03T05:42:02.761Z,4.83
2018-03-03T05:44:39.125Z,4.90
2018-03-03T05:50:23.296Z,4.17
2018-03-03T05:53:14.297Z,5.00
2018-03-03T05:59:09.618Z,3.10
2018-03-03T06:01:59.613Z,4.73
2018-03-03T06:04:30.388Z,3.03
2018-03-03T06:10:11.733Z,2.70
2018-03-03T06:12:42.287Z,2.73
2018-03-03T06:15:13.710Z,2.57
2018-03-03T06:17:43.871Z,2.77
2018-03-03T06:20:14.132Z,2.80
2018-03-03T06:22:45.067Z,2.83
2018-03-03T06:25:15.395Z,2.73
2018-03-03T06:27:45.480Z,2.30
2018-03-03T06:30:15.769Z,1.77
2018-03-03T06:32:46.260Z,2.57
2018-03-03T06:35:16.445Z,2.13
2018-03-03T06:37:46.739Z,2.10
2018-03-03T06:40:17.383Z,2.20
2018-03-03T06:42:47.787Z,2.70
2018-03-03T06:45:17.939Z,2.00
2018-03-03T06:47:48.996Z,2.40
2018-03-03T06:50:19.694Z,2.17
2018-03-03T06:52:50.890Z,2.43
2018-03-03T06:55:20.941Z,2.83
2018-03-03T06:57:51.065Z,2.60
2018-03-03T07:00:21.289Z,2.80
2018-03-03T07:02:51.365Z,3.00
2018-03-03T07:05:21.372Z,3.13
2018-03-03T07:07:51.964Z,2.23
2018-03-03T07:10:22.701Z,2.50
2018-03-03T07:12:53.830Z,2.27
2018-03-03T07:15:29.315Z,4.90
2018-03-03T07:17:59.887Z,6.07
2018-03-03T07:20:30.168Z,7.20
2018-03-03T07:23:00.215Z,7.70
2018-03-03T07:25:30.163Z,6.77
2018-03-03T07:28:00.227Z,8.67
2018-03-03T07:30:30.646Z,9.53
2018-03-03T07:33:00.764Z,9.47
2018-03-03T07:35:31.733Z,10.13
2018-03-03T07:38:01.782Z,10.10
2018-03-03T07:40:32.455Z,9.10
2018-03-03T07:43:02.623Z,10.87
2018-03-03T07:45:33.314Z,9.77
2018-03-03T07:48:03.212Z,10.97
2018-03-03T07:50:34.397Z,10.73
2018-03-03T07:53:04.503Z,10.50
2018-03-03T07:55:34.445Z,9.90
2018-03-03T07:58:04.558Z,10.97
2018-03-03T08:00:34.723Z,9.97
2018-03-03T08:03:05.430Z,10.70
2018-03-03T08:05:36.549Z,10.27
2018-03-03T08:08:06.924Z,10.70
2018-03-03T08:10:38.175Z,10.73
2018-03-03T08:13:09.104Z,9.77
2018-03-03T08:15:39.935Z,10.10
2018-03-03T08:18:10.569Z,9.10
2018-03-03T08:20:40.724Z,10.53
2018-03-03T08:23:11.081Z,10.77
2018-03-03T08:25:41.504Z,7.67
2018-03-03T08:28:11.941Z,9.60
2018-03-03T08:30:42.406Z,9.53
2018-03-03T08:33:12.833Z,8.40
2018-03-03T08:35:43.722Z,8.57
2018-03-03T08:38:13.678Z,8.80
2018-03-03T08:40:43.655Z,9.23
2018-03-03T08:43:13.709Z,10.90
2018-03-03T08:45:44.526Z,10.27
2018-03-03T08:48:14.920Z,9.77
2018-03-03T08:50:44.990Z,10.33
2018-03-03T08:53:15.129Z,8.20
2018-03-03T08:55:46.713Z,8.30
2018-03-03T08:58:16.865Z,8.00
2018-03-03T09:00:46.909Z,7.90
2018-03-03T09:03:17.212Z,8.03
2018-03-03T09:05:47.148Z,8.10
2018-03-03T09:08:17.295Z,10.17
2018-03-03T09:10:47.704Z,10.77
2018-03-03T09:13:18.809Z,11.80
2018-03-03T09:15:49.171Z,11.93
2018-03-03T09:18:20.114Z,12.83
2018-03-03T09:20:51.077Z,14.23
2018-03-03T09:23:21.296Z,13.30
2018-03-03T09:25:51.639Z,13.03
2018-03-03T09:28:21.514Z,13.20
2018-03-03T09:30:52.502Z,12.30
2018-03-03T09:33:24.037Z,12.63
2018-03-03T09:35:54.202Z,12.70
2018-03-03T09:38:25.336Z,11.03
2018-03-03T09:40:55.473Z,13.77
2018-03-03T09:43:26.557Z,14.10
2018-03-03T09:45:56.800Z,15.40
2018-03-03T09:48:26.969Z,14.23
2018-03-03T09:50:57.701Z,15.90
2018-03-03T09:53:29.362Z,17.10
2018-03-03T09:56:00.537Z,15.63
2018-03-03T09:58:30.894Z,15.77
2018-03-03T10:01:01.455Z,14.67
2018-03-03T10:03:32.452Z,13.53
2018-03-03T10:06:02.648Z,14.70
2018-03-03T10:08:32.738Z,14.67
2018-03-03T10:11:04.089Z,13.63
2018-03-03T10:13:35.306Z,13.07
2018-03-03T10:16:05.489Z,14.20
2018-03-03T10:18:36.477Z,15.70
2018-03-03T10:21:06.730Z,13.10
2018-03-03T10:23:37.662Z,13.87
2018-03-03T10:26:08.735Z,13.37
2018-03-03T10:28:39.186Z,12.50
2018-03-03T10:31:09.524Z,12.50
2018-03-03T10:33:39.917Z,13.40
2018-03-03T10:36:10.142Z,13.50
2018-03-03T10:38:40.346Z,15.10
2018-03-03T10:41:11.399Z,12.00
2018-03-03T10:43:41.710Z,12.47
2018-03-03T10:46:12.064Z,11.30
2018-03-03T10:48:41.941Z,10.43
2018-03-03T10:51:12.442Z,10.67
2018-03-03T10:53:43.349Z,11.37
2018-03-03T10:56:14.048Z,9.90
2018-03-03T10:58:44.717Z,10.90
2018-03-03T11:01:15.438Z,10.20
2018-03-03T11:03:45.673Z,10.70
2018-03-03T11:06:15.490Z,11.17
2018-03-03T11:08:45.477Z,15.83
2018-03-03T11:11:15.612Z,14.60
2018-03-03T11:13:46.032Z,16.17
2018-03-03T11:16:16.408Z,18.43
2018-03-03T11:18:47.487Z,16.87
2018-03-03T11:21:17.658Z,18.83
2018-03-03T11:23:47.761Z,18.73
2018-03-03T11:26:17.848Z,17.87
2018-03-03T11:28:47.537Z,17.40
2018-03-03T11:31:17.729Z,17.90
2018-03-03T11:33:48.670Z,16.57
2018-03-03T11:36:18.845Z,14.00
2018-03-03T11:38:48.753Z,13.83
2018-03-03T11:41:19.181Z,13.20
2018-03-03T11:43:49.317Z,15.30
2018-03-03T11:46:19.462Z,15.23
2018-03-03T11:48:49.762Z,13.47
2018-03-03T11:51:19.920Z,13.77
2018-03-03T11:53:50.859Z,12.80
2018-03-03T11:56:21.772Z,12.60
2018-03-03T11:58:51.861Z,12.73
2018-03-03T12:01:21.654Z,13.50
2018-03-03T12:03:52.250Z,12.47
2018-03-03T12:06:22.546Z,12.90
2018-03-03T12:08:53.062Z,12.27
2018-03-03T12:11:23.129Z,10.97
2018-03-03T12:13:53.357Z,11.70
2018-03-03T12:16:24.153Z,12.23
2018-03-03T12:18:53.924Z,11.77
2018-03-03T12:21:24.104Z,14.17
2018-03-03T12:23:54.206Z,13.00
2018-03-03T12:26:24.192Z,12.80
2018-03-03T12:28:54.617Z,12.60
2018-03-03T12:31:26.607Z,11.87
2018-03-03T12:33:57.858Z,11.50
2018-03-03T12:36:28.205Z,10.70
2018-03-03T12:38:58.558Z,10.27
2018-03-03T12:41:28.729Z,11.03
2018-03-03T12:43:59.035Z,12.23
2018-03-03T12:46:29.226Z,13.30
2018-03-03T12:49:00.344Z,12.13
2018-03-03T12:51:31.001Z,11.93
2018-03-03T12:54:02.235Z,13.70
2018-03-03T12:56:32.780Z,13.60
2018-03-03T12:59:02.975Z,13.23
2018-03-03T13:01:34.079Z,13.90
2018-03-03T13:04:04.622Z,12.90
2018-03-03T13:06:36.065Z,13.73
2018-03-03T13:09:06.529Z,14.73
2018-03-03T13:11:37.476Z,12.17
2018-03-03T13:14:08.898Z,13.60
2018-03-03T13:16:39.105Z,13.10
2018-03-03T13:19:08.840Z,14.13
2018-03-03T13:21:38.892Z,13.23
2018-03-03T13:24:09.022Z,13.33
2018-03-03T13:26:38.953Z,12.80
2018-03-03T13:29:09.076Z,12.73
2018-03-03T13:31:39.435Z,13.20
2018-03-03T13:34:09.313Z,13.00
2018-03-03T13:36:39.645Z,12.30
2018-03-03T13:39:09.581Z,12.03
2018-03-03T13:41:39.578Z,13.77
2018-03-03T13:44:09.797Z,11.60
2018-03-03T13:46:40.142Z,10.67
2018-03-03T13:49:10.321Z,10.53
2018-03-03T13:54:25.268Z,11.10
2018-03-03T13:56:56.454Z,11.30
2018-03-03T13:59:27.028Z,10.93
2018-03-03T14:01:57.230Z,9.97
2018-03-03T14:04:27.568Z,9.63
2018-03-03T14:06:58.054Z,9.30
2018-03-03T14:09:28.469Z,9.20
2018-03-03T14:11:58.385Z,9.03
2018-03-03T14:14:28.316Z,8.27
2018-03-03T14:16:58.995Z,8.83
2018-03-03T14:19:30.107Z,9.23
2018-03-03T14:22:01.301Z,9.23
2018-03-03T14:24:31.741Z,8.00
2018-03-03T14:27:02.210Z,8.23
2018-03-03T14:29:33.172Z,8.10
2018-03-03T14:32:06.053Z,8.10
2018-03-03T14:34:37.207Z,8.73
2018-03-03T14:37:07.646Z,8.50
2018-03-03T14:39:38.727Z,8.63
2018-03-03T14:42:09.660Z,8.40
2018-03-03T14:44:39.948Z,8.07
2018-03-03T14:47:11.043Z,8.40
2018-03-03T14:49:41.289Z,7.47
2018-03-03T14:52:11.719Z,7.50
2018-03-03T14:54:42.980Z,6.70
2018-03-03T14:57:13.356Z,8.63
2018-03-03T14:59:43.587Z,7.47
2018-03-03T15:02:13.444Z,8.40
2018-03-03T15:04:44.667Z,8.17
2018-03-03T15:07:14.754Z,9.77
2018-03-03T15:09:45.200Z,8.57
2018-03-03T15:12:15.703Z,8.60
2018-03-03T15:14:46.092Z,9.00
2018-03-03T15:17:17.205Z,8.83
2018-03-03T15:19:47.215Z,8.50
2018-03-03T15:22:18.123Z,8.60
2018-03-03T15:24:48.203Z,7.07
2018-03-03T15:27:19.115Z,8.20
2018-03-03T15:29:50.231Z,7.90
2018-03-03T15:32:21.186Z,7.70
2018-03-03T15:34:51.285Z,8.03
2018-03-03T15:37:21.118Z,8.10
2018-03-03T15:39:51.459Z,8.27
2018-03-03T15:42:21.893Z,8.87
2018-03-03T15:44:52.003Z,8.20
2018-03-03T15:47:22.327Z,7.90
2018-03-03T15:49:52.523Z,8.30
2018-03-03T15:52:22.690Z,8.57
2018-03-03T15:54:53.713Z,8.47
2018-03-03T15:57:25.051Z,8.67
2018-03-03T15:59:55.658Z,8.73
2018-03-03T16:02:26.910Z,8.10
2018-03-03T16:04:57.172Z,7.87
2018-03-03T16:07:27.524Z,8.90
2018-03-03T16:09:57.706Z,8.77
2018-03-03T16:12:28.030Z,8.50
2018-03-03T16:14:58.026Z,9.70
2018-03-03T16:17:28.235Z,10.10
2018-03-03T16:19:58.382Z,10.63
2018-03-03T16:22:28.514Z,14.00
2018-03-03T16:24:58.757Z,11.17
2018-03-03T16:27:29.972Z,10.57
2018-03-03T16:30:00.304Z,10.93
2018-03-03T16:32:30.429Z,11.20
2018-03-03T16:38:23.015Z,11.57
2018-03-03T16:40:54.120Z,11.40
2018-03-03T16:43:24.617Z,12.20
2018-03-03T16:45:54.994Z,10.80
2018-03-03T16:48:25.291Z,11.33
2018-03-03T16:50:55.427Z,11.30
2018-03-03T16:53:25.708Z,12.37
2018-03-03T16:55:55.958Z,11.20
2018-03-03T16:58:26.181Z,12.33
2018-03-03T17:00:56.648Z,11.10
2018-03-03T17:03:27.623Z,11.80
2018-03-03T17:05:57.782Z,11.23
2018-03-03T17:08:28.157Z,11.43
2018-03-03T17:10:58.235Z,10.73
2018-03-03T17:13:28.477Z,10.13
2018-03-03T17:15:59.388Z,10.30
2018-03-03T17:18:29.514Z,11.23
2018-03-03T17:20:59.707Z,10.70
2018-03-03T17:23:30.083Z,10.50
2018-03-03T17:26:00.379Z,11.40
2018-03-03T17:28:30.495Z,11.13
2018-03-03T17:31:00.937Z,10.93
2018-03-03T17:33:31.477Z,11.27
2018-03-03T17:36:02.399Z,11.57
2018-03-03T17:38:32.613Z,12.00
2018-03-03T17:41:02.675Z,12.27
2018-03-03T17:43:33.167Z,11.07
2018-03-03T17:46:04.409Z,11.93
2018-03-03T17:48:34.740Z,11.93
2018-03-03T17:51:04.846Z,10.90
2018-03-03T17:53:35.207Z,11.07
2018-03-03T17:56:06.117Z,11.60
2018-03-03T17:58:36.307Z,11.33
2018-03-03T18:01:06.418Z,11.53
2018-03-03T18:03:36.234Z,10.83
2018-03-03T18:06:06.327Z,10.80
2018-03-03T18:08:37.497Z,11.30
2018-03-03T18:11:11.318Z,10.77
2018-03-03T18:13:41.491Z,11.07
2018-03-03T18:16:12.802Z,10.80
2018-03-03T18:18:43.223Z,9.63
2018-03-03T18:21:13.345Z,9.77
2018-03-03T18:23:43.607Z,10.67
2018-03-03T18:26:14.406Z,9.67
2018-03-03T18:28:44.506Z,9.93
2018-03-03T18:31:14.771Z,9.80
2018-03-03T18:33:45.082Z,9.70
2018-03-03T18:36:15.506Z,8.93
2018-03-03T18:38:46.013Z,8.97
2018-03-03T18:41:16.101Z,9.60
2018-03-03T18:43:46.771Z,9.20
2018-03-03T18:46:17.106Z,8.97
2018-03-03T18:48:47.645Z,8.77
2018-03-03T18:51:17.536Z,8.60
2018-03-03T18:53:47.870Z,9.40
2018-03-03T18:56:18.093Z,9.20
2018-03-03T18:58:47.916Z,9.50
2018-03-03T19:01:18.221Z,9.43
2018-03-03T19:03:48.642Z,9.37
2018-03-03T19:06:18.774Z,9.80
2018-03-03T19:08:48.920Z,9.60
2018-03-03T19:11:19.678Z,9.73
2018-03-03T19:13:50.284Z,9.00
2018-03-03T19:16:21.402Z,9.17
2018-03-03T19:18:51.976Z,9.97
2018-03-03T19:21:22.240Z,9.70
2018-03-03T19:23:53.290Z,9.83
2018-03-03T19:26:23.346Z,10.87
2018-03-03T19:28:54.412Z,10.20
2018-03-03T19:31:24.514Z,9.60
2018-03-03T19:33:56.245Z,10.23
2018-03-03T19:36:26.223Z,9.50
2018-03-03T19:38:57.688Z,9.90
2018-03-03T19:41:28.012Z,9.90
2018-03-03T19:43:58.338Z,9.90
2018-03-03T19:46:28.616Z,9.67
2018-03-03T19:48:58.637Z,9.57
2018-03-03T19:51:28.736Z,11.30
2018-03-03T19:53:59.737Z,9.60
2018-03-03T19:56:30.194Z,10.07
2018-03-03T19:59:01.350Z,10.13
2018-03-03T20:01:32.469Z,10.00
2018-03-03T20:04:03.051Z,9.90
2018-03-03T20:06:33.709Z,9.27
2018-03-03T20:09:03.893Z,9.10
2018-03-03T20:11:33.934Z,8.40
2018-03-03T20:14:03.971Z,9.17
2018-03-03T20:16:34.400Z,9.50
2018-03-03T20:19:04.718Z,8.23
2018-03-03T20:21:34.996Z,10.40
2018-03-03T20:24:05.195Z,8.83
2018-03-03T20:26:35.559Z,9.30
2018-03-03T20:29:05.375Z,9.27
2018-03-03T20:31:35.885Z,9.60
2018-03-03T20:34:06.253Z,9.80
2018-03-03T20:36:36.715Z,9.17
2018-03-03T20:39:07.889Z,8.80
2018-03-03T20:41:38.497Z,8.70
2018-03-03T20:44:09.310Z,8.63
2018-03-03T20:46:40.352Z,9.00
2018-03-03T20:49:11.060Z,8.00
2018-03-03T20:51:41.342Z,9.00
2018-03-03T20:54:11.943Z,8.67
2018-03-03T20:56:42.033Z,8.53
2018-03-03T20:59:12.445Z,8.20
2018-03-03T21:01:42.973Z,8.13
2018-03-03T21:04:13.560Z,8.77
2018-03-03T21:06:44.648Z,8.27
2018-03-03T21:09:15.129Z,7.80
2018-03-03T21:11:46.532Z,7.80
2018-03-03T21:14:17.056Z,7.73
2018-03-03T21:16:47.196Z,8.13
2018-03-03T21:19:17.192Z,7.00
2018-03-03T21:21:47.570Z,7.67
2018-03-03T21:24:17.863Z,7.37
2018-03-03T21:26:48.090Z,8.03
2018-03-03T21:29:18.417Z,7.50
2018-03-03T21:31:48.744Z,7.80
2018-03-03T21:34:19.143Z,7.90
2018-03-03T21:36:49.267Z,8.27
2018-03-03T21:39:19.447Z,7.50
2018-03-03T21:41:49.725Z,7.27
2018-03-03T21:44:20.196Z,6.47
2018-03-03T21:46:51.283Z,6.73
2018-03-03T21:49:21.627Z,6.90
2018-03-03T21:51:51.975Z,7.10
2018-03-03T21:54:23.191Z,6.47
2018-03-03T21:56:53.586Z,6.87
2018-03-03T21:59:23.786Z,6.80
2018-03-03T22:01:54.524Z,7.87
2018-03-03T22:04:25.304Z,7.23
2018-03-03T22:06:56.370Z,6.90
2018-03-03T22:09:27.211Z,7.80
2018-03-03T22:11:57.414Z,8.10
2018-03-03T22:14:27.427Z,8.00
2018-03-03T22:16:57.637Z,8.07
2018-03-03T22:19:28.174Z,8.13
2018-03-03T22:21:58.354Z,8.13
2018-03-03T22:24:28.698Z,8.43
2018-03-03T22:26:58.817Z,8.37
2018-03-03T22:29:29.279Z,8.40
2018-03-03T22:31:59.409Z,9.63
2018-03-03T22:34:30.423Z,9.20
2018-03-03T22:37:00.449Z,8.60
2018-03-03T22:39:30.847Z,8.57
2018-03-03T22:42:00.964Z,9.37
2018-03-03T22:44:31.409Z,10.10
2018-03-03T22:47:01.695Z,9.73
2018-03-03T22:49:32.147Z,8.03
2018-03-03T22:52:02.282Z,8.47
2018-03-03T22:54:32.505Z,9.47
2018-03-03T22:57:02.608Z,10.40
2018-03-03T22:59:32.842Z,10.57
2018-03-03T23:02:03.171Z,12.23
2018-03-03T23:04:33.542Z,12.03
2018-03-03T23:07:04.683Z,12.33
2018-03-03T23:09:35.184Z,13.33
2018-03-03T23:12:05.422Z,13.97
2018-03-03T23:14:36.466Z,12.83
2018-03-03T23:17:09.218Z,12.13
2018-03-03T23:19:39.384Z,12.23
2018-03-03T23:22:09.742Z,13.67
2018-03-03T23:24:41.752Z,14.43
2018-03-03T23:27:12.513Z,14.00
2018-03-03T23:29:42.757Z,15.10
2018-03-03T23:32:12.922Z,14.63
2018-03-03T23:34:43.120Z,15.20
2018-03-03T23:37:14.141Z,15.13
2018-03-03T23:39:44.009Z,15.40
2018-03-03T23:42:14.500Z,13.83
2018-03-03T23:44:45.503Z,15.03
2018-03-03T23:47:15.667Z,13.47
2018-03-03T23:49:46.121Z,12.67
2018-03-03T23:52:17.266Z,11.03
2018-03-03T23:54:48.048Z,11.20
2018-03-03T23:57:18.859Z,11.07
2018-03-03T23:59:49.811Z,10.63
